Time;durP1;ratioP1;P1;durP2;ratioP2;P2;SDS_P1;SDS_P2;PMS_P1;PMS_P2;Temp;Humidity;BMP_temperature;BMP_pressure;BME280_temperature;BME280_humidity;BME280_pressure;Samples;Min_cycle;Max_cycle;Signal;HPM_P1;HPM_P2
2022/07/15 04:30:14;;;;;;;;;;;25.50;55.10;;;;;;5685881;23;19925;-78
2022/07/15 04:32:42;;;;;;;;;;;25.60;55.10;;;;;;4994737;28;19972;-78
2022/07/15 04:35:09;;;;;;;;;;;25.50;55.10;;;;;;4995009;28;19926;-78
2022/07/15 04:37:36;;;;;;;;;;;25.60;55.20;;;;;;4994993;28;19976;-78
2022/07/15 04:40:03;;;;;;;;;;;25.60;55.20;;;;;;4995108;28;20050;-77
2022/07/15 04:42:30;;;;;;;;;;;25.60;55.20;;;;;;4994387;28;19984;-76
2022/07/15 04:44:56;;;;;;;;;;;25.60;55.20;;;;;;4994219;28;20396;-77
2022/07/15 04:47:24;;;;;;;;;;;25.60;55.20;;;;;;4994449;28;19926;-76
2022/07/15 04:52:35;;;;;;;;;;;25.50;55.20;;;;;;4994791;28;19992;-76
2022/07/15 04:55:02;;;;;;;;;;;25.50;55.20;;;;;;4994096;28;20025;-75
2022/07/15 04:57:28;;;;;;;;;;;25.60;55.30;;;;;;4997643;28;19926;-82
2022/07/15 04:59:55;;;;;;;;;;;25.50;55.30;;;;;;5000062;28;20036;-83
2022/07/15 05:02:22;;;;;;;;;;;25.60;55.30;;;;;;5001695;28;19976;-82
2022/07/15 05:04:50;;;;;;;;;;;25.50;55.30;;;;;;5002071;28;19955;-82
2022/07/15 05:07:16;;;;;;;;;;;25.50;55.30;;;;;;5004876;28;20021;-82
2022/07/15 05:09:43;;;;;;;;;;;25.50;55.40;;;;;;5005221;28;19961;-84
2022/07/15 05:12:09;;;;;;;;;;;25.50;55.40;;;;;;5002393;28;19925;-83
2022/07/15 05:14:38;;;;;;;;;;;25.60;55.40;;;;;;5003818;28;19932;-83
2022/07/15 05:17:04;;;;;;;;;;;25.50;55.50;;;;;;5003397;28;19926;-83
2022/07/15 05:19:31;;;;;;;;;;;25.50;55.40;;;;;;5002076;28;20028;-81
2022/07/15 05:21:59;;;;;;;;;;;25.60;55.50;;;;;;5000692;28;20020;-81
2022/07/15 05:24:26;;;;;;;;;;;25.60;55.50;;;;;;5000994;28;20020;-82
2022/07/15 05:26:52;;;;;;;;;;;25.50;55.50;;;;;;5001584;28;19932;-82
2022/07/15 05:29:21;;;;;;;;;;;25.60;55.60;;;;;;5001636;28;19932;-81
2022/07/15 05:31:48;;;;;;;;;;;25.60;55.60;;;;;;5000442;28;19925;-81
2022/07/15 05:34:15;;;;;;;;;;;25.50;55.60;;;;;;5000133;28;20377;-81
2022/07/15 05:36:41;;;;;;;;;;;25.60;55.70;;;;;;5000048;28;20013;-81
2022/07/15 05:39:09;;;;;;;;;;;25.50;55.70;;;;;;5000819;28;20020;-82
2022/07/15 05:41:36;;;;;;;;;;;25.50;55.70;;;;;;5000544;28;19926;-82
2022/07/15 05:44:03;;;;;;;;;;;25.50;55.70;;;;;;5001507;28;20358;-82
2022/07/15 05:46:29;;;;;;;;;;;25.60;55.80;;;;;;5001571;28;19926;-83
2022/07/15 05:48:56;;;;;;;;;;;25.60;55.80;;;;;;5001306;28;19932;-82
2022/07/15 05:51:23;;;;;;;;;;;25.50;56.40;;;;;;5000566;28;20020;-82
2022/07/15 05:53:49;;;;;;;;;;;25.50;55.80;;;;;;5000668;28;19997;-82
2022/07/15 05:56:17;;;;;;;;;;;25.50;55.80;;;;;;5000800;28;20009;-82
2022/07/15 05:58:44;;;;;;;;;;;25.50;55.80;;;;;;5000725;28;19932;-82
2022/07/15 06:01:11;;;;;;;;;;;25.50;55.90;;;;;;5001027;28;19936;-82
2022/07/15 06:03:37;;;;;;;;;;;25.50;55.90;;;;;;5000590;28;20021;-82
2022/07/15 06:06:06;;;;;;;;;;;25.50;55.90;;;;;;5000481;28;19926;-82
2022/07/15 06:08:33;;;;;;;;;;;25.50;55.90;;;;;;5001380;28;19926;-83
2022/07/15 06:10:59;;;;;;;;;;;25.50;55.90;;;;;;5000596;28;19932;-83
2022/07/15 06:13:27;;;;;;;;;;;25.50;56.00;;;;;;5000493;28;19961;-83
2022/07/15 06:15:54;;;;;;;;;;;25.50;56.00;;;;;;5000882;28;19932;-83
2022/07/15 06:18:21;;;;;;;;;;;25.50;56.10;;;;;;5002145;28;19976;-83
2022/07/15 06:20:47;;;;;;;;;;;25.50;56.10;;;;;;5003043;28;19933;-83
2022/07/15 06:23:14;;;;;;;;;;;25.50;56.20;;;;;;5001728;28;20377;-83
2022/07/15 06:25:42;;;;;;;;;;;25.50;56.30;;;;;;5000811;28;19930;-83
2022/07/15 06:28:08;;;;;;;;;;;25.50;56.30;;;;;;5001315;28;19949;-82
2022/07/15 06:30:36;;;;;;;;;;;25.60;56.40;;;;;;5000644;28;19980;-82
2022/07/15 06:33:03;;;;;;;;;;;25.50;56.30;;;;;;4999998;28;19932;-82
2022/07/15 06:35:30;;;;;;;;;;;25.50;56.30;;;;;;5000427;28;19926;-83
2022/07/15 06:37:56;;;;;;;;;;;25.60;56.40;;;;;;4999995;28;19972;-82
2022/07/15 06:40:23;;;;;;;;;;;25.60;56.40;;;;;;4999209;28;19925;-81
2022/07/15 06:42:50;;;;;;;;;;;25.50;56.30;;;;;;4999208;28;19932;-82
2022/07/15 06:45:16;;;;;;;;;;;25.60;56.40;;;;;;4999185;28;20020;-82
2022/07/15 06:47:44;;;;;;;;;;;25.60;56.40;;;;;;4999980;28;19968;-81
2022/07/15 06:50:11;;;;;;;;;;;25.50;56.30;;;;;;5000019;28;20024;-82
2022/07/15 06:52:38;;;;;;;;;;;25.60;56.40;;;;;;4999491;28;20008;-82
2022/07/15 06:55:05;;;;;;;;;;;25.60;56.40;;;;;;4999230;28;20017;-82
2022/07/15 06:57:32;;;;;;;;;;;25.60;56.40;;;;;;4998813;28;20020;-82
2022/07/15 06:59:58;;;;;;;;;;;25.60;56.50;;;;;;4999357;28;19933;-79
2022/07/15 07:02:25;;;;;;;;;;;25.60;56.60;;;;;;4999139;28;20020;-82
2022/07/15 07:04:53;;;;;;;;;;;25.50;56.70;;;;;;4999450;28;19936;-82
2022/07/15 07:07:20;;;;;;;;;;;25.60;56.70;;;;;;4998352;28;19926;-82
2022/07/15 07:09:46;;;;;;;;;;;25.60;56.80;;;;;;4997991;28;20005;-82
2022/07/15 07:12:13;;;;;;;;;;;25.60;56.80;;;;;;4999323;28;19932;-82
2022/07/15 07:14:39;;;;;;;;;;;25.60;56.90;;;;;;4998607;28;19972;-82
2022/07/15 07:17:06;;;;;;;;;;;25.60;57.00;;;;;;4999005;28;20024;-82
2022/07/15 07:19:33;;;;;;;;;;;25.50;57.00;;;;;;4999563;28;20401;-81
2022/07/15 07:22:01;;;;;;;;;;;25.60;57.00;;;;;;4998963;28;20426;-82
2022/07/15 07:24:27;;;;;;;;;;;25.60;57.10;;;;;;4998690;28;20395;-82
2022/07/15 07:26:54;;;;;;;;;;;25.60;57.10;;;;;;4999433;28;19932;-82
2022/07/15 07:29:23;;;;;;;;;;;25.60;57.20;;;;;;5002088;28;19964;-82
2022/07/15 07:31:49;;;;;;;;;;;25.60;57.20;;;;;;5000993;28;20313;-82
2022/07/15 07:34:17;;;;;;;;;;;25.60;57.30;;;;;;5000507;28;20382;-82
2022/07/15 07:36:44;;;;;;;;;;;25.60;57.30;;;;;;4999998;28;19926;-82
2022/07/15 07:39:12;;;;;;;;;;;25.60;57.30;;;;;;4999706;28;19976;-82
2022/07/15 07:41:38;;;;;;;;;;;25.60;57.40;;;;;;5000170;28;19925;-82
2022/07/15 07:44:05;;;;;;;;;;;25.60;57.40;;;;;;4999364;28;20017;-82
2022/07/15 07:46:32;;;;;;;;;;;25.60;57.40;;;;;;4999770;28;20024;-82
2022/07/15 07:48:59;;;;;;;;;;;25.60;57.50;;;;;;4999581;28;19926;-82
2022/07/15 07:51:25;;;;;;;;;;;25.60;57.50;;;;;;4999458;28;19965;-83
2022/07/15 07:53:52;;;;;;;;;;;25.60;57.50;;;;;;4996348;28;20016;-85
2022/07/15 07:56:20;;;;;;;;;;;25.60;57.50;;;;;;4995718;28;19932;-84
2022/07/15 07:58:47;;;;;;;;;;;25.60;57.50;;;;;;4995988;28;19965;-84
2022/07/15 08:01:13;;;;;;;;;;;25.50;57.40;;;;;;4997194;28;19969;-85
2022/07/15 08:03:40;;;;;;;;;;;25.50;57.40;;;;;;4996963;28;19926;-85
2022/07/15 08:06:07;;;;;;;;;;;25.50;57.30;;;;;;4995376;28;19932;-85
2022/07/15 08:08:33;;;;;;;;;;;25.60;57.40;;;;;;4996635;28;20371;-86
2022/07/15 08:11:00;;;;;;;;;;;25.50;57.20;;;;;;4995453;28;20033;-86
2022/07/15 08:13:29;;;;;;;;;;;25.50;57.00;;;;;;4995365;28;20016;-86
2022/07/15 08:15:56;;;;;;;;;;;25.50;57.00;;;;;;4997579;28;19926;-84
2022/07/15 08:18:23;;;;;;;;;;;25.50;56.80;;;;;;4997336;28;19948;-83
2022/07/15 08:20:51;;;;;;;;;;;25.40;57.10;;;;;;4998588;28;19925;-83
2022/07/15 08:23:20;;;;;;;;;;;25.40;56.20;;;;;;4997330;28;20297;-83
2022/07/15 08:25:48;;;;;;;;;;;25.40;56.20;;;;;;4997436;28;19933;-83
2022/07/15 08:28:15;;;;;;;;;;;25.40;56.20;;;;;;4998035;28;20452;-83
2022/07/15 08:30:43;;;;;;;;;;;25.40;55.90;;;;;;4997306;28;19972;-83
2022/07/15 08:33:09;;;;;;;;;;;25.40;55.70;;;;;;4997967;28;20016;-83
2022/07/15 08:35:36;;;;;;;;;;;25.30;55.30;;;;;;4998386;28;19926;-83
2022/07/15 08:38:07;;;;;;;;;;;25.30;55.00;;;;;;4997236;28;20016;-85
2022/07/15 08:40:34;;;;;;;;;;;25.30;54.90;;;;;;4995023;28;19933;-87
2022/07/15 08:43:01;;;;;;;;;;;25.30;54.70;;;;;;4995261;28;20005;-85
2022/07/15 08:45:28;;;;;;;;;;;25.30;54.50;;;;;;4994777;28;20024;-85
2022/07/15 08:47:58;;;;;;;;;;;25.30;54.20;;;;;;4994614;28;19969;-85
2022/07/15 08:50:24;;;;;;;;;;;25.30;53.90;;;;;;4996689;28;20377;-84
2022/07/15 08:52:52;;;;;;;;;;;25.30;53.60;;;;;;4997873;28;20016;-80
2022/07/15 08:55:19;;;;;;;;;;;25.30;53.30;;;;;;5001949;28;19989;-85
2022/07/15 08:57:47;;;;;;;;;;;25.30;53.00;;;;;;5003687;28;19953;-81
2022/07/15 09:00:16;;;;;;;;;;;25.30;52.80;;;;;;5004524;28;19926;-84
2022/07/15 09:02:43;;;;;;;;;;;25.30;52.40;;;;;;5000355;28;19984;-80
2022/07/15 09:05:20;;;;;;;;;;;25.30;52.20;;;;;;4999515;28;19997;-80
2022/07/15 09:07:54;;;;;;;;;;;25.20;51.80;;;;;;4999703;28;20292;-81
2022/07/15 09:10:21;;;;;;;;;;;25.20;51.30;;;;;;4999845;28;19932;-80
2022/07/15 09:12:52;;;;;;;;;;;25.20;51.30;;;;;;4999207;28;19925;-78
2022/07/15 09:15:36;;;;;;;;;;;25.30;51.40;;;;;;4999661;28;20024;-78
2022/07/15 09:21:14;;;;;;;;;;;25.30;50.70;;;;;;5008446;28;19949;-80
2022/07/15 09:23:41;;;;;;;;;;;25.30;50.40;;;;;;5010157;28;19972;-78
2022/07/15 09:26:22;;;;;;;;;;;25.30;50.00;;;;;;5005037;28;19933;-80
2022/07/15 09:28:50;;;;;;;;;;;25.30;49.70;;;;;;5003897;28;19926;-79
2022/07/15 09:34:11;;;;;;;;;;;25.30;49.20;;;;;;5003450;28;19946;-82
2022/07/15 09:37:03;;;;;;;;;;;25.30;48.90;;;;;;5006850;28;19949;-83
2022/07/15 09:39:32;;;;;;;;;;;25.30;48.60;;;;;;5009978;28;19949;-80
2022/07/15 09:42:06;;;;;;;;;;;25.30;48.20;;;;;;5011873;28;19971;-83
2022/07/15 09:44:34;;;;;;;;;;;25.30;47.80;;;;;;5016467;28;19926;-85
2022/07/15 09:47:02;;;;;;;;;;;25.30;47.60;;;;;;5016258;28;19926;-83
2022/07/15 09:49:33;;;;;;;;;;;25.30;47.30;;;;;;5015584;28;19925;-83
2022/07/15 09:52:01;;;;;;;;;;;25.20;47.00;;;;;;5011412;28;19933;-80
2022/07/15 09:54:30;;;;;;;;;;;25.30;46.70;;;;;;5013373;28;19989;-80
2022/07/15 09:56:59;;;;;;;;;;;25.30;46.40;;;;;;5011706;28;19960;-80
2022/07/15 09:59:27;;;;;;;;;;;25.30;46.40;;;;;;5009144;28;20017;-79
2022/07/15 10:01:54;;;;;;;;;;;25.30;46.40;;;;;;5004683;28;19969;-82
2022/07/15 10:04:21;;;;;;;;;;;25.30;46.10;;;;;;5001753;28;19949;-83
2022/07/15 10:06:49;;;;;;;;;;;25.30;45.90;;;;;;5003225;28;19925;-78
2022/07/15 10:09:16;;;;;;;;;;;25.30;45.60;;;;;;5003061;28;19949;-82
2022/07/15 10:11:44;;;;;;;;;;;25.30;45.30;;;;;;5000791;28;20444;-80
2022/07/15 10:14:27;;;;;;;;;;;25.30;45.00;;;;;;5000129;28;19925;-82
2022/07/15 10:17:08;;;;;;;;;;;25.30;44.80;;;;;;5000583;28;19930;-82
2022/07/15 10:19:53;;;;;;;;;;;25.30;44.70;;;;;;5001289;28;19930;-77
2022/07/15 10:22:26;;;;;;;;;;;25.30;44.50;;;;;;5000748;28;20017;-76
2022/07/15 10:24:55;;;;;;;;;;;25.30;45.00;;;;;;5000861;28;20109;-75
2022/07/15 10:27:40;;;;;;;;;;;25.40;44.40;;;;;;4998564;28;20464;-75
2022/07/15 10:30:09;;;;;;;;;;;25.40;44.20;;;;;;4987628;28;20016;-77
2022/07/15 10:32:54;;;;;;;;;;;25.40;44.10;;;;;;4997512;28;19925;-77
2022/07/15 10:35:36;;;;;;;;;;;25.50;44.10;;;;;;4997823;28;19925;-76
2022/07/15 10:38:23;;;;;;;;;;;25.50;43.90;;;;;;4997532;28;20378;-77
2022/07/15 10:41:14;;;;;;;;;;;25.50;43.80;;;;;;4997176;28;19969;-76
2022/07/15 10:43:41;;;;;;;;;;;25.50;43.70;;;;;;4996627;28;20378;-77
2022/07/15 10:46:19;;;;;;;;;;;25.50;43.40;;;;;;4998594;28;19977;-78
2022/07/15 10:48:46;;;;;;;;;;;25.50;43.30;;;;;;4998692;28;19926;-78
2022/07/15 10:51:13;;;;;;;;;;;25.60;43.30;;;;;;4998964;28;20385;-78
2022/07/15 10:53:43;;;;;;;;;;;25.60;43.10;;;;;;4998524;28;19932;-79
2022/07/15 10:56:29;;;;;;;;;;;25.50;42.90;;;;;;4998953;28;19926;-77
2022/07/15 10:59:08;;;;;;;;;;;25.60;42.90;;;;;;4999055;28;19930;-78
2022/07/15 11:01:36;;;;;;;;;;;25.50;42.60;;;;;;4997437;28;20096;-78
2022/07/15 11:04:13;;;;;;;;;;;25.50;42.60;;;;;;4998068;28;19932;-79
2022/07/15 11:06:58;;;;;;;;;;;25.50;43.10;;;;;;4998432;28;20016;-76
2022/07/15 11:09:43;;;;;;;;;;;25.60;42.50;;;;;;4997571;28;19930;-77
2022/07/15 11:12:11;;;;;;;;;;;25.60;42.50;;;;;;4996998;28;20012;-76
2022/07/15 11:14:44;;;;;;;;;;;25.60;42.50;;;;;;4996581;28;19925;-76
2022/07/15 11:17:13;;;;;;;;;;;25.60;42.40;;;;;;4996904;28;19926;-76
2022/07/15 11:19:40;;;;;;;;;;;25.60;42.30;;;;;;4996920;28;19989;-76
2022/07/15 11:22:09;;;;;;;;;;;25.60;42.20;;;;;;4997114;28;19926;-78
2022/07/15 11:24:35;;;;;;;;;;;25.60;42.10;;;;;;4996159;28;19930;-79
2022/07/15 11:27:02;;;;;;;;;;;25.60;42.00;;;;;;4998493;28;19925;-80
2022/07/15 11:29:40;;;;;;;;;;;25.60;42.00;;;;;;4998603;28;20020;-79
2022/07/15 11:32:08;;;;;;;;;;;25.70;42.00;;;;;;4997921;28;19925;-78
2022/07/15 11:34:43;;;;;;;;;;;25.70;41.80;;;;;;4995741;28;20408;-78
2022/07/15 11:37:12;;;;;;;;;;;25.60;42.20;;;;;;4996081;28;19926;-77
2022/07/15 11:39:39;;;;;;;;;;;25.60;41.60;;;;;;4996812;28;19926;-77
2022/07/15 11:44:50;;;;;;;;;;;25.70;41.70;;;;;;4995923;28;19968;-77
2022/07/15 11:47:17;;;;;;;;;;;25.70;41.70;;;;;;4995752;28;19933;-77
2022/07/15 11:49:45;;;;;;;;;;;25.60;41.40;;;;;;4995424;28;19964;-78
2022/07/15 11:52:14;;;;;;;;;;;25.60;41.20;;;;;;4998020;28;19932;-79
2022/07/15 11:54:41;;;;;;;;;;;25.60;41.10;;;;;;4998000;28;19977;-79
2022/07/15 11:57:09;;;;;;;;;;;25.60;40.90;;;;;;4997566;28;20013;-78
2022/07/15 11:59:36;;;;;;;;;;;25.60;40.70;;;;;;4996289;28;19925;-78
2022/07/15 12:02:03;;;;;;;;;;;25.60;40.40;;;;;;4995366;28;19932;-78
2022/07/15 12:04:30;;;;;;;;;;;25.50;40.30;;;;;;4995315;28;19926;-78
2022/07/15 12:06:59;;;;;;;;;;;25.50;40.10;;;;;;4995199;28;20001;-78
2022/07/15 12:09:26;;;;;;;;;;;25.50;39.90;;;;;;4994788;28;20384;-79
2022/07/15 12:11:52;;;;;;;;;;;25.50;39.80;;;;;;4995651;28;19925;-78
2022/07/15 12:14:20;;;;;;;;;;;25.50;39.60;;;;;;4995480;28;19932;-77
2022/07/15 12:16:48;;;;;;;;;;;25.50;39.50;;;;;;4995579;28;19926;-76
2022/07/15 12:19:16;;;;;;;;;;;25.50;39.40;;;;;;4997909;28;19926;-77
2022/07/15 12:21:43;;;;;;;;;;;25.50;39.30;;;;;;4999700;28;19933;-78
2022/07/15 12:24:15;;;;;;;;;;;25.50;39.20;;;;;;4998713;28;20037;-79
2022/07/15 12:26:44;;;;;;;;;;;25.60;39.00;;;;;;5000856;28;20366;-79
2022/07/15 12:29:14;;;;;;;;;;;25.60;39.00;;;;;;5002851;28;20381;-79
2022/07/15 12:31:43;;;;;;;;;;;25.60;38.80;;;;;;5000711;28;19964;-80
2022/07/15 12:34:10;;;;;;;;;;;25.60;38.70;;;;;;4998358;28;19934;-78
2022/07/15 12:36:39;;;;;;;;;;;25.60;38.70;;;;;;4997248;28;20179;-78
2022/07/15 12:39:12;;;;;;;;;;;25.60;38.50;;;;;;4997611;28;19930;-78
2022/07/15 12:41:40;;;;;;;;;;;25.60;38.40;;;;;;4996796;28;19926;-78
2022/07/15 12:44:07;;;;;;;;;;;25.60;38.30;;;;;;4999846;28;20029;-79
2022/07/15 12:46:51;;;;;;;;;;;25.60;38.20;;;;;;5000029;28;20016;-78
2022/07/15 12:49:36;;;;;;;;;;;25.60;38.10;;;;;;4999214;28;19933;-78
2022/07/15 12:52:12;;;;;;;;;;;25.60;38.00;;;;;;4999148;28;20012;-77
2022/07/15 12:54:40;;;;;;;;;;;25.60;38.00;;;;;;4999554;28;20021;-78
2022/07/15 12:57:06;;;;;;;;;;;25.60;37.90;;;;;;4999561;28;19972;-78
2022/07/15 12:59:48;;;;;;;;;;;25.70;37.80;;;;;;4999595;28;19965;-78
2022/07/15 13:02:15;;;;;;;;;;;25.70;37.80;;;;;;5000785;28;19955;-78
2022/07/15 13:04:42;;;;;;;;;;;25.70;37.70;;;;;;4999798;28;19926;-79
2022/07/15 13:07:09;;;;;;;;;;;25.70;37.60;;;;;;5002560;28;20012;-79
2022/07/15 13:09:35;;;;;;;;;;;25.70;37.50;;;;;;5002585;28;19930;-79
2022/07/15 13:12:08;;;;;;;;;;;25.70;37.40;;;;;;5001715;28;19933;-80
2022/07/15 13:14:35;;;;;;;;;;;25.70;37.30;;;;;;5000861;28;20101;-80
2022/07/15 13:17:02;;;;;;;;;;;25.70;37.10;;;;;;4996863;28;19987;-77
2022/07/15 13:19:29;;;;;;;;;;;25.70;37.00;;;;;;4995789;28;20378;-78
2022/07/15 13:21:55;;;;;;;;;;;25.70;36.90;;;;;;4996016;28;19938;-78
2022/07/15 13:24:22;;;;;;;;;;;25.70;36.80;;;;;;4996363;28;19932;-79
2022/07/15 13:26:49;;;;;;;;;;;25.70;36.60;;;;;;4999044;28;19926;-78
2022/07/15 13:29:17;;;;;;;;;;;25.70;36.60;;;;;;5000644;28;19965;-79
2022/07/15 13:31:43;;;;;;;;;;;25.70;36.60;;;;;;4999183;28;19926;-77
2022/07/15 13:34:10;;;;;;;;;;;25.70;36.60;;;;;;5000391;28;19932;-79
2022/07/15 13:36:37;;;;;;;;;;;25.70;36.60;;;;;;4999614;28;20025;-80
2022/07/15 13:39:04;;;;;;;;;;;25.80;36.70;;;;;;4999887;28;19926;-79
2022/07/15 13:41:31;;;;;;;;;;;25.80;36.70;;;;;;4999920;28;19926;-80
2022/07/15 13:43:58;;;;;;;;;;;25.70;36.40;;;;;;4999786;28;20020;-80
2022/07/15 13:46:26;;;;;;;;;;;25.80;36.30;;;;;;4999855;28;19926;-80
2022/07/15 13:48:52;;;;;;;;;;;25.80;36.20;;;;;;4999525;28;20440;-80
2022/07/15 13:51:24;;;;;;;;;;;25.70;36.00;;;;;;4999377;28;19997;-80
2022/07/15 13:53:51;;;;;;;;;;;25.80;36.00;;;;;;4999434;28;19972;-79
2022/07/15 13:56:17;;;;;;;;;;;25.70;35.80;;;;;;4999354;28;20415;-79
2022/07/15 13:58:44;;;;;;;;;;;25.80;35.70;;;;;;4999573;28;20444;-79
2022/07/15 14:01:11;;;;;;;;;;;25.80;35.70;;;;;;4999205;28;20411;-79
2022/07/15 14:03:39;;;;;;;;;;;25.80;35.60;;;;;;4999402;28;20397;-79
2022/07/15 14:06:06;;;;;;;;;;;25.80;35.60;;;;;;4999460;28;19936;-79
2022/07/15 14:08:32;;;;;;;;;;;25.80;35.50;;;;;;5000662;28;20036;-79
2022/07/15 14:10:59;;;;;;;;;;;25.80;35.40;;;;;;4999195;28;19926;-79
2022/07/15 14:13:26;;;;;;;;;;;25.80;35.40;;;;;;4999437;28;20394;-79
2022/07/15 14:15:52;;;;;;;;;;;25.80;35.40;;;;;;4999354;28;20377;-79
2022/07/15 14:18:42;;;;;;;;;;;25.80;35.30;;;;;;4999473;28;20016;-80
2022/07/15 14:21:07;;;;;;;;;;;25.80;35.30;;;;;;4998796;28;20017;-80
2022/07/15 14:23:34;;;;;;;;;;;25.80;35.20;;;;;;4999844;28;19926;-79
2022/07/15 14:26:01;;;;;;;;;;;25.80;35.20;;;;;;4999758;28;19925;-79
2022/07/15 14:28:27;;;;;;;;;;;25.90;35.20;;;;;;4998622;28;20341;-78
2022/07/15 14:30:54;;;;;;;;;;;25.80;35.10;;;;;;4996897;28;20342;-78
2022/07/15 14:33:21;;;;;;;;;;;25.80;35.00;;;;;;4997614;28;20029;-78
2022/07/15 14:35:47;;;;;;;;;;;25.90;35.10;;;;;;4997021;28;20369;-78
2022/07/15 14:38:15;;;;;;;;;;;25.90;35.00;;;;;;4996303;28;19961;-78
2022/07/15 14:40:42;;;;;;;;;;;25.80;34.90;;;;;;4996936;28;19926;-78
2022/07/15 14:43:09;;;;;;;;;;;25.80;34.90;;;;;;4997163;28;19926;-78
2022/07/15 14:45:35;;;;;;;;;;;25.90;34.90;;;;;;4996830;28;19930;-78
2022/07/15 14:48:02;;;;;;;;;;;25.90;34.80;;;;;;4996810;28;19925;-78
2022/07/15 14:50:29;;;;;;;;;;;25.90;34.80;;;;;;4996964;28;20057;-78
2022/07/15 14:52:55;;;;;;;;;;;25.90;34.80;;;;;;4996431;28;20386;-78
2022/07/15 14:55:23;;;;;;;;;;;25.90;34.70;;;;;;4996360;28;20305;-78
2022/07/15 14:57:50;;;;;;;;;;;25.80;34.60;;;;;;4996843;28;19932;-78
2022/07/15 15:00:17;;;;;;;;;;;25.80;34.60;;;;;;4996877;28;20024;-78
2022/07/15 15:02:43;;;;;;;;;;;25.80;34.60;;;;;;4996649;28;19932;-78
2022/07/15 15:05:10;;;;;;;;;;;25.80;34.60;;;;;;4996585;28;19925;-78
2022/07/15 15:07:37;;;;;;;;;;;25.80;34.60;;;;;;4996359;28;19926;-78
2022/07/15 15:10:04;;;;;;;;;;;25.80;34.50;;;;;;4996410;28;19926;-78
2022/07/15 15:12:32;;;;;;;;;;;25.80;34.50;;;;;;4996008;28;19926;-78
2022/07/15 15:14:59;;;;;;;;;;;25.80;34.40;;;;;;4996142;28;20294;-78
2022/07/15 15:17:25;;;;;;;;;;;25.80;34.40;;;;;;4996021;28;20012;-78
2022/07/15 15:19:52;;;;;;;;;;;25.80;34.40;;;;;;4995953;28;20352;-78
2022/07/15 15:22:19;;;;;;;;;;;25.80;34.40;;;;;;4996001;28;20417;-78
2022/07/15 15:24:46;;;;;;;;;;;25.80;34.30;;;;;;4996242;28;19932;-78
2022/07/15 15:27:14;;;;;;;;;;;25.80;34.30;;;;;;4996119;28;19925;-78
2022/07/15 15:29:45;;;;;;;;;;;25.80;34.30;;;;;;4995999;28;19937;-78
2022/07/15 15:32:15;;;;;;;;;;;25.80;34.20;;;;;;4996166;28;19932;-78
2022/07/15 15:34:42;;;;;;;;;;;25.80;34.20;;;;;;4996296;28;20352;-78
2022/07/15 15:37:09;;;;;;;;;;;25.80;34.20;;;;;;4996053;28;19926;-78
2022/07/15 15:39:35;;;;;;;;;;;25.80;34.10;;;;;;4995994;28;20008;-78
2022/07/15 15:42:02;;;;;;;;;;;25.80;34.10;;;;;;4995703;28;19932;-78
2022/07/15 15:44:28;;;;;;;;;;;25.80;34.00;;;;;;4995758;28;20300;-78
2022/07/15 15:46:57;;;;;;;;;;;25.80;34.00;;;;;;4995488;28;20032;-78
2022/07/15 15:49:23;;;;;;;;;;;25.80;34.00;;;;;;4996408;28;19926;-78
2022/07/15 15:51:50;;;;;;;;;;;25.80;34.00;;;;;;4996026;28;20016;-78
2022/07/15 15:54:16;;;;;;;;;;;25.80;33.90;;;;;;4995953;28;19929;-78
2022/07/15 15:56:43;;;;;;;;;;;25.80;33.90;;;;;;4996055;28;19925;-78
2022/07/15 15:59:10;;;;;;;;;;;25.80;33.90;;;;;;4995868;28;20020;-78
2022/07/15 16:01:37;;;;;;;;;;;25.80;33.80;;;;;;4995739;28;19930;-78
2022/07/15 16:04:05;;;;;;;;;;;25.80;33.80;;;;;;4995405;28;20018;-78
2022/07/15 16:06:31;;;;;;;;;;;25.80;33.80;;;;;;4995481;28;20028;-78
2022/07/15 16:08:58;;;;;;;;;;;25.80;33.80;;;;;;4995344;28;20016;-78
2022/07/15 16:11:25;;;;;;;;;;;25.80;33.80;;;;;;4995285;28;20444;-78
2022/07/15 16:13:51;;;;;;;;;;;25.70;33.70;;;;;;4995122;28;19926;-78
2022/07/15 16:16:18;;;;;;;;;;;25.80;33.70;;;;;;4995578;28;19932;-78
2022/07/15 16:18:45;;;;;;;;;;;25.80;33.70;;;;;;4995397;28;19932;-78
2022/07/15 16:21:13;;;;;;;;;;;25.70;33.60;;;;;;4995450;28;19925;-78
2022/07/15 16:23:38;;;;;;;;;;;25.80;33.70;;;;;;4995367;28;20312;-78
2022/07/15 16:26:05;;;;;;;;;;;25.70;33.60;;;;;;4995386;28;19926;-78
2022/07/15 16:28:32;;;;;;;;;;;25.80;33.60;;;;;;4995955;28;20064;-78
2022/07/15 16:30:58;;;;;;;;;;;25.70;33.50;;;;;;4995884;28;20436;-78
2022/07/15 16:33:25;;;;;;;;;;;25.70;34.10;;;;;;4996382;28;20301;-81
2022/07/15 16:35:52;;;;;;;;;;;25.70;33.40;;;;;;4997577;28;20024;-78
2022/07/15 16:38:20;;;;;;;;;;;25.60;33.20;;;;;;4995229;28;19933;-78
2022/07/15 16:40:46;;;;;;;;;;;25.60;33.20;;;;;;4996278;28;20313;-78
2022/07/15 16:43:13;;;;;;;;;;;25.60;33.20;;;;;;4996536;28;20361;-80
2022/07/15 16:45:40;;;;;;;;;;;25.60;33.10;;;;;;4996646;28;19933;-79
2022/07/15 16:48:07;;;;;;;;;;;25.60;33.00;;;;;;4995946;28;19930;-79
2022/07/15 16:50:34;;;;;;;;;;;25.60;33.00;;;;;;4995447;28;19926;-79
2022/07/15 16:53:00;;;;;;;;;;;25.60;32.90;;;;;;4996182;28;19932;-79
2022/07/15 16:55:28;;;;;;;;;;;25.60;32.90;;;;;;4995643;28;20404;-79
2022/07/15 16:57:55;;;;;;;;;;;25.60;32.90;;;;;;4995596;28;19965;-79
2022/07/15 17:00:22;;;;;;;;;;;25.70;32.90;;;;;;4996063;28;19933;-82
2022/07/15 17:02:51;;;;;;;;;;;25.70;32.90;;;;;;4998605;28;19926;-79
2022/07/15 17:05:18;;;;;;;;;;;25.70;32.90;;;;;;5000614;28;19926;-80
2022/07/15 17:07:44;;;;;;;;;;;25.70;32.90;;;;;;5000451;28;19961;-79
2022/07/15 17:10:11;;;;;;;;;;;25.70;32.90;;;;;;5000801;28;20016;-80
2022/07/15 17:12:39;;;;;;;;;;;25.80;32.90;;;;;;5000306;28;19932;-80
2022/07/15 17:15:06;;;;;;;;;;;25.80;32.90;;;;;;5000188;28;19926;-80
2022/07/15 17:17:33;;;;;;;;;;;25.70;32.80;;;;;;4999795;28;20024;-80
2022/07/15 17:20:00;;;;;;;;;;;25.80;32.90;;;;;;5000272;28;19973;-80
2022/07/15 17:22:27;;;;;;;;;;;25.70;32.80;;;;;;5000041;28;20417;-80
2022/07/15 17:24:53;;;;;;;;;;;25.70;32.80;;;;;;5000195;28;20461;-79
2022/07/15 17:27:20;;;;;;;;;;;25.70;32.80;;;;;;5000683;28;19932;-79
2022/07/15 17:29:48;;;;;;;;;;;25.70;32.80;;;;;;5000981;28;20006;-80
2022/07/15 17:32:15;;;;;;;;;;;25.60;32.60;;;;;;5000306;28;19932;-80
2022/07/15 17:34:41;;;;;;;;;;;25.70;32.60;;;;;;4999822;28;19926;-80
2022/07/15 17:37:08;;;;;;;;;;;25.60;32.50;;;;;;5000368;28;19932;-80
2022/07/15 17:39:35;;;;;;;;;;;25.60;32.50;;;;;;5000320;28;20020;-80
2022/07/15 17:42:02;;;;;;;;;;;25.60;32.50;;;;;;5000819;28;20316;-81
2022/07/15 17:44:28;;;;;;;;;;;25.60;32.40;;;;;;5000941;28;19965;-82
2022/07/15 17:46:56;;;;;;;;;;;25.60;32.30;;;;;;5001058;28;20021;-80
2022/07/15 17:49:24;;;;;;;;;;;25.60;32.30;;;;;;5000531;28;19925;-80
2022/07/15 17:51:52;;;;;;;;;;;25.60;32.20;;;;;;4999852;28;20020;-77
2022/07/15 17:54:19;;;;;;;;;;;25.50;32.10;;;;;;4998651;28;19933;-80
2022/07/15 17:56:46;;;;;;;;;;;25.60;32.20;;;;;;5000310;28;19925;-80
2022/07/15 17:59:12;;;;;;;;;;;25.60;32.10;;;;;;5002465;28;20020;-81
2022/07/15 18:01:39;;;;;;;;;;;25.60;32.10;;;;;;5006420;28;19926;-82
2022/07/15 18:04:07;;;;;;;;;;;25.60;32.00;;;;;;5000592;28;19976;-83
2022/07/15 18:06:35;;;;;;;;;;;25.60;31.90;;;;;;5002225;28;19926;-83
2022/07/15 18:09:02;;;;;;;;;;;25.50;31.90;;;;;;5002842;28;19988;-83
2022/07/15 18:11:28;;;;;;;;;;;25.60;31.90;;;;;;5001970;28;19930;-80
2022/07/15 18:13:55;;;;;;;;;;;25.60;31.90;;;;;;4999391;28;20302;-81
2022/07/15 18:16:22;;;;;;;;;;;25.60;31.80;;;;;;5000855;28;19933;-81
2022/07/15 18:18:49;;;;;;;;;;;25.60;31.80;;;;;;4999722;28;20017;-80
2022/07/15 18:21:17;;;;;;;;;;;25.60;31.70;;;;;;4999754;28;19926;-81
2022/07/15 18:23:44;;;;;;;;;;;25.60;31.70;;;;;;5001159;28;20400;-81
2022/07/15 18:26:10;;;;;;;;;;;25.60;31.70;;;;;;5000132;28;20277;-81
2022/07/15 18:28:37;;;;;;;;;;;25.60;31.60;;;;;;5000702;28;19933;-81
2022/07/15 18:31:04;;;;;;;;;;;25.60;31.60;;;;;;5000538;28;19926;-81
2022/07/15 18:33:31;;;;;;;;;;;25.60;31.60;;;;;;4999927;28;19930;-83
2022/07/15 18:35:57;;;;;;;;;;;25.60;31.50;;;;;;4998391;28;19929;-83
2022/07/15 18:38:28;;;;;;;;;;;25.60;31.40;;;;;;4997554;28;19925;-83
2022/07/15 18:40:55;;;;;;;;;;;25.60;31.40;;;;;;4997168;28;20369;-83
2022/07/15 18:43:22;;;;;;;;;;;25.50;31.30;;;;;;4997613;28;20400;-83
2022/07/15 18:45:49;;;;;;;;;;;25.60;31.40;;;;;;4997299;28;20274;-83
2022/07/15 18:48:15;;;;;;;;;;;25.50;31.30;;;;;;4999367;28;19926;-83
2022/07/15 18:50:42;;;;;;;;;;;25.60;31.40;;;;;;4999122;28;19932;-83
2022/07/15 18:53:09;;;;;;;;;;;25.60;31.30;;;;;;4996912;28;20019;-83
2022/07/15 18:55:37;;;;;;;;;;;25.60;31.30;;;;;;4996984;28;20024;-83
2022/07/15 18:58:03;;;;;;;;;;;25.60;31.30;;;;;;4997134;28;20296;-83
2022/07/15 19:00:30;;;;;;;;;;;25.60;31.30;;;;;;4996702;28;20016;-83
2022/07/15 19:02:57;;;;;;;;;;;25.50;31.30;;;;;;5001456;28;20024;-83